createdAt,value
2023-04-08T00:03:15.403Z,16.20
2023-04-08T00:08:19.712Z,15.20
2023-04-08T00:13:22.481Z,14.68
2023-04-08T00:18:25.265Z,14.20
2023-04-08T00:23:29.312Z,13.60
2023-04-08T00:28:32.092Z,14.90
2023-04-08T00:33:34.887Z,13.52
2023-04-08T00:38:39.041Z,14.57
2023-04-08T00:43:41.831Z,14.07
2023-04-08T00:48:44.727Z,12.27
2023-04-08T00:53:48.810Z,12.85
2023-04-08T00:58:55.122Z,13.73
2023-04-08T01:04:03.478Z,13.63
2023-04-08T01:09:08.070Z,12.50
2023-04-08T01:14:13.142Z,13.02
2023-04-08T01:19:23.852Z,12.07
2023-04-08T01:24:32.020Z,14.05
2023-04-08T01:29:37.566Z,13.32
2023-04-08T01:34:42.741Z,12.55
2023-04-08T01:39:46.795Z,12.20
2023-04-08T01:44:52.437Z,13.95
2023-04-08T01:49:56.582Z,11.70
2023-04-08T01:54:59.422Z,12.77
2023-04-08T02:00:07.553Z,13.02
2023-04-08T02:05:22.747Z,10.88
2023-04-08T02:10:25.760Z,11.93
2023-04-08T02:15:33.292Z,13.13
2023-04-08T02:20:39.898Z,12.50
2023-04-08T02:25:45.499Z,11.20
2023-04-08T02:30:51.894Z,10.30
2023-04-08T02:35:56.562Z,10.33
2023-04-08T02:40:59.873Z,10.50
2023-04-08T02:46:07.264Z,11.13
2023-04-08T02:56:14.799Z,10.32
2023-04-08T03:01:18.965Z,10.10
2023-04-08T03:06:21.711Z,10.88
2023-04-08T03:11:24.462Z,13.15
2023-04-08T03:16:28.604Z,15.98
2023-04-08T03:21:32.275Z,17.33
2023-04-08T03:26:35.245Z,14.10
2023-04-08T03:31:39.351Z,15.23
2023-04-08T03:36:42.159Z,15.68
2023-04-08T03:41:44.925Z,15.05
2023-04-08T03:46:49.141Z,16.60
2023-04-08T03:51:52.107Z,16.73
2023-04-08T03:56:55.268Z,20.30
2023-04-08T04:01:59.367Z,20.38
2023-04-08T04:07:02.356Z,20.85
2023-04-08T04:12:05.221Z,19.95
2023-04-08T04:17:09.336Z,20.33
2023-04-08T04:22:12.468Z,20.50
2023-04-08T04:27:15.168Z,18.83
2023-04-08T04:32:19.454Z,18.60
2023-04-08T04:37:22.512Z,19.02
2023-04-08T04:42:25.484Z,20.10
2023-04-08T04:47:29.650Z,18.98
2023-04-08T04:52:32.466Z,18.77
2023-04-08T04:57:35.340Z,18.92
2023-04-08T05:02:39.521Z,19.15
2023-04-08T05:07:42.395Z,17.83
2023-04-08T05:12:45.128Z,18.42
2023-04-08T05:17:49.266Z,19.35
2023-04-08T05:22:52.093Z,18.40
2023-04-08T05:27:54.876Z,16.75
2023-04-08T05:33:00.590Z,20.00
2023-04-08T05:38:03.708Z,19.50
2023-04-08T05:43:06.824Z,21.48
2023-04-08T05:48:11.034Z,17.75
2023-04-08T05:53:14.172Z,19.02
2023-04-08T05:58:17.163Z,19.80
2023-04-08T06:03:21.519Z,20.30
2023-04-08T06:08:24.721Z,19.90
2023-04-08T06:13:27.611Z,17.65
2023-04-08T06:18:31.672Z,17.88
2023-04-08T06:23:34.606Z,19.75
2023-04-08T06:28:37.379Z,18.90
2023-04-08T06:33:41.559Z,18.60
2023-04-08T06:38:44.728Z,19.42
2023-04-08T06:43:47.753Z,20.90
2023-04-08T06:48:52.176Z,23.98
2023-04-08T06:53:55.879Z,20.23
2023-04-08T06:58:59.167Z,19.20
2023-04-08T07:04:03.459Z,18.88
2023-04-08T07:09:06.935Z,19.50
2023-04-08T07:14:09.752Z,19.98
2023-04-08T07:19:13.849Z,20.13
2023-04-08T07:24:16.786Z,20.20
2023-04-08T07:29:20.769Z,19.98
2023-04-08T07:34:24.934Z,22.17
2023-04-08T07:39:28.774Z,20.63
2023-04-08T07:44:31.593Z,20.77
2023-04-08T07:49:35.725Z,18.70
2023-04-08T07:54:38.546Z,20.40
2023-04-08T07:59:41.632Z,18.52
2023-04-08T08:04:45.953Z,20.20
2023-04-08T08:09:49.230Z,17.60
2023-04-08T08:14:54.715Z,18.08
2023-04-08T08:19:59.500Z,17.75
2023-04-08T08:25:02.594Z,19.13
2023-04-08T08:30:06.760Z,20.60
2023-04-08T08:35:11.066Z,19.52
2023-04-08T08:40:15.478Z,20.63
2023-04-08T08:45:20.128Z,20.40
2023-04-08T08:50:24.740Z,20.65
2023-04-08T08:55:44.866Z,19.75
2023-04-08T09:00:50.365Z,19.90
2023-04-08T09:05:56.099Z,20.95
2023-04-08T09:11:14.028Z,20.80
2023-04-08T09:16:18.396Z,19.42
2023-04-08T09:21:24.809Z,21.33
2023-04-08T09:26:27.914Z,21.40
2023-04-08T09:31:32.548Z,19.05
2023-04-08T09:36:36.769Z,20.30
2023-04-08T09:41:40.592Z,20.45
2023-04-08T09:46:57.387Z,19.67
2023-04-08T09:52:08.882Z,18.88
2023-04-08T09:57:15.038Z,20.58
2023-04-08T10:02:25.015Z,19.63
2023-04-08T10:07:29.351Z,19.10
2023-04-08T10:12:32.413Z,17.45
2023-04-08T10:17:36.879Z,18.77
2023-04-08T10:22:50.287Z,18.67
2023-04-08T10:27:53.080Z,17.88
2023-04-08T10:32:57.190Z,18.25
2023-04-08T10:38:02.256Z,17.13
2023-04-08T10:43:05.746Z,16.48
2023-04-08T10:48:17.773Z,15.02
2023-04-08T10:53:27.871Z,14.98
2023-04-08T10:58:31.998Z,15.57
2023-04-08T11:03:36.047Z,13.25
2023-04-08T11:08:41.602Z,13.80
2023-04-08T11:13:53.370Z,14.23
2023-04-08T11:18:56.770Z,13.68
2023-04-08T11:24:01.025Z,13.90
2023-04-08T11:29:04.354Z,14.63
2023-04-08T11:34:07.439Z,14.13
2023-04-08T11:39:12.514Z,15.07
2023-04-08T11:44:15.466Z,12.85
2023-04-08T11:49:18.446Z,13.40
2023-04-08T11:54:29.402Z,13.48
2023-04-08T11:59:32.497Z,13.35
2023-04-08T12:04:35.866Z,13.73
2023-04-08T12:09:40.867Z,13.57
2023-04-08T12:14:43.644Z,14.15
2023-04-08T12:19:46.787Z,13.75
2023-04-08T12:24:51.225Z,21.38
2023-04-08T12:29:54.114Z,13.00
2023-04-08T12:34:57.186Z,13.90
2023-04-08T12:40:01.491Z,14.73
2023-04-08T12:45:04.951Z,13.18
2023-04-08T12:50:09.839Z,14.05
2023-04-08T12:55:14.056Z,13.80
2023-04-08T13:00:17.013Z,12.95
2023-04-08T13:05:29.509Z,13.93
2023-04-08T13:10:44.461Z,12.23
2023-04-08T13:15:48.003Z,11.52
2023-04-08T13:20:51.059Z,10.65
2023-04-08T13:25:56.239Z,10.82
2023-04-08T13:30:59.483Z,10.93
2023-04-08T13:36:02.349Z,10.90
2023-04-08T13:41:07.441Z,10.02
2023-04-08T13:46:10.302Z,10.18
2023-04-08T13:51:13.089Z,10.98
2023-04-08T13:56:17.142Z,11.07
2023-04-08T14:01:20.124Z,10.88
2023-04-08T14:06:22.932Z,14.05
2023-04-08T14:11:27.067Z,9.90
2023-04-08T14:16:31.585Z,10.90
2023-04-08T14:21:34.728Z,11.70
2023-04-08T14:26:38.912Z,10.88
2023-04-08T14:31:41.803Z,12.10
2023-04-08T14:36:45.478Z,11.40
2023-04-08T14:41:51.146Z,12.23
2023-04-08T14:46:54.028Z,13.77
2023-04-08T14:51:56.803Z,11.23
2023-04-08T14:57:01.065Z,13.43
2023-04-08T15:02:03.902Z,12.00
2023-04-08T15:07:07.499Z,12.57
2023-04-08T15:12:13.595Z,11.38
2023-04-08T15:17:16.766Z,10.85
2023-04-08T15:22:19.505Z,10.73
2023-04-08T15:27:23.706Z,12.70
2023-04-08T15:32:26.442Z,8.68
2023-04-08T15:37:29.244Z,10.85
2023-04-08T15:42:34.504Z,13.35
2023-04-08T15:47:38.115Z,8.88
2023-04-08T15:52:41.532Z,9.40
2023-04-08T15:57:45.683Z,8.88
2023-04-08T16:02:48.574Z,9.65
2023-04-08T16:07:51.774Z,7.78
2023-04-08T16:12:56.045Z,8.52
2023-04-08T16:17:58.800Z,19.30
2023-04-08T16:23:01.669Z,11.25
2023-04-08T16:28:07.188Z,10.30
2023-04-08T16:33:10.847Z,8.65
2023-04-08T16:38:14.867Z,10.68
2023-04-08T16:43:18.991Z,7.70
2023-04-08T16:48:22.394Z,8.13
2023-04-08T16:53:25.477Z,9.98
2023-04-08T16:58:31.242Z,7.72
2023-04-08T17:03:34.478Z,8.10
2023-04-08T17:08:37.484Z,7.22
2023-04-08T17:13:43.149Z,6.70
2023-04-08T17:18:46.478Z,5.82
2023-04-08T17:23:49.504Z,6.05
2023-04-08T17:28:53.867Z,5.00
2023-04-08T17:33:56.666Z,6.57
2023-04-08T17:38:59.568Z,6.80
2023-04-08T17:44:06.408Z,6.57
2023-04-08T17:49:11.242Z,5.72
2023-04-08T17:54:14.104Z,6.30
2023-04-08T17:59:18.518Z,7.00
2023-04-08T18:04:23.497Z,5.57
2023-04-08T18:09:26.966Z,5.53
2023-04-08T18:14:32.553Z,8.43
2023-04-08T18:19:36.948Z,8.02
2023-04-08T18:24:39.646Z,9.60
2023-04-08T18:29:43.874Z,9.10
2023-04-08T18:34:47.002Z,11.45
2023-04-08T18:39:50.137Z,10.13
2023-04-08T18:44:54.296Z,10.13
2023-04-08T18:49:58.607Z,8.38
2023-04-08T18:55:06.510Z,8.32
2023-04-08T19:00:11.404Z,10.95
2023-04-08T19:05:14.670Z,9.70
2023-04-08T19:10:19.544Z,10.93
2023-04-08T19:15:23.687Z,10.02
2023-04-08T19:20:27.213Z,13.13
2023-04-08T19:25:30.098Z,12.63
2023-04-08T19:30:37.701Z,12.00
2023-04-08T19:35:41.317Z,21.33
2023-04-08T19:40:44.147Z,18.25
2023-04-08T19:45:48.891Z,20.52
2023-04-08T19:50:52.373Z,18.65
2023-04-08T19:56:00.037Z,18.63
2023-04-08T20:01:04.816Z,12.98
2023-04-08T20:06:08.381Z,13.02
2023-04-08T20:11:13.883Z,14.70
2023-04-08T20:16:18.158Z,16.08
2023-04-08T20:21:20.987Z,13.52
2023-04-08T20:26:23.875Z,11.30
2023-04-08T20:31:28.511Z,10.55
2023-04-08T20:36:33.691Z,9.93
2023-04-08T20:41:37.983Z,10.52
2023-04-08T20:46:42.766Z,9.13
2023-04-08T20:51:45.675Z,9.02
2023-04-08T20:56:48.360Z,8.27
2023-04-08T21:01:53.940Z,7.43
2023-04-08T21:06:56.948Z,7.57
2023-04-08T21:11:59.675Z,7.50
2023-04-08T21:17:03.813Z,6.97
2023-04-08T21:22:07.035Z,7.72
2023-04-08T21:27:09.947Z,8.85
2023-04-08T21:32:14.384Z,8.43
2023-04-08T21:37:17.115Z,8.07
2023-04-08T21:42:22.617Z,8.07
2023-04-08T21:47:26.965Z,8.60
2023-04-08T21:52:31.495Z,6.63
2023-04-08T21:57:34.212Z,9.15
2023-04-08T22:02:40.769Z,9.25
2023-04-08T22:07:43.640Z,8.93
2023-04-08T22:12:46.351Z,8.55
2023-04-08T22:17:50.663Z,8.63
2023-04-08T22:22:55.000Z,9.35
2023-04-08T22:27:57.991Z,8.93
2023-04-08T22:33:02.207Z,8.60
2023-04-08T22:38:05.979Z,8.80
2023-04-08T22:43:08.769Z,8.30
2023-04-08T22:48:13.317Z,7.97
2023-04-08T22:53:16.230Z,8.07
2023-04-08T22:58:18.978Z,9.13
2023-04-08T23:03:23.193Z,7.50
2023-04-08T23:08:26.141Z,7.85
2023-04-08T23:13:29.009Z,7.57
2023-04-08T23:18:33.232Z,8.32
2023-04-08T23:23:35.986Z,7.53
2023-04-08T23:28:38.733Z,7.78
2023-04-08T23:33:42.854Z,8.18
2023-04-08T23:38:46.091Z,8.73
2023-04-08T23:43:49.119Z,8.07
2023-04-08T23:48:53.536Z,7.72
2023-04-08T23:53:56.646Z,8.13
2023-04-08T23:58:59.473Z,8.70
